Terminal Aerodrome Forecast
Issued by NWS Knoxville/Tri Cities, TN

Home | Current Version | Previous Version | Text Only | Print | Product List | Glossary On
Versions: 1 2 3 4 5 6 7 8 9 10 11 12
000
FTUS44 KMRX 221129
TAFCHA
TAF
KCHA 221129Z 2212/2312 VRB03KT P6SM SCT120 BKN200
     FM221600 17009KT P6SM BKN035
     FM221900 17011G17KT 6SM -SHRA BR OVC025
     FM222200 18011G16KT 5SM -SHRA BR VCTS OVC020CB
     FM230200 20009KT P6SM -SHRA OVC030
     FM230400 23009KT P6SM SKC=

USA.gov is the U.S. government's official web portal to all federal, state and local government web resources and services.